Hauptseite
METAR-TAF:

METAR-TAF

Flughäfen :

Zagreb, Kroatien

Flughafen Franjo Tuđman Zagreb

Breite: 45-44N, Länge: 016-04E, Höhe: 106 m

Beobachtung

Neuester Wetterbericht von vor 17 Minuten, um 18:00 UTC
Windstille
Temperatur 24°C
Luftfeuchtigkeit 36%
Luftdruck 1013 hPa
Sichtweite 10 km oder mehr
keine Wolken unter 1500 m und keine Kumulonimbus oder Gewitterwolken

METAR: LDZA 221800Z 00000KT CAVOK 24/08 Q1013 NOSIG

Zeit: 20:17 (18:17 UTC)

Prognose

Neuester Wetterbericht von vor 52 Minuten, um 17:25 UTC
Gültige Prognose vom 22 um 18 UTC bis 23 um 18 UTC
Wind 5 kt aus Südwest
Sichtweite 10 km oder mehr
keine Wolken unter 1500 m und keine Kumulonimbus oder Gewitterwolken
Wahrscheinlichkeit 30% :
Zeitweise
vom 22 um 18 UTC bis 23 um 12 UTC
Wind 7 kt aus Südwest

TAF: LDZA 221725Z 2218/2318 23005KT CAVOK TX29/2314Z TN09/2303Z PROB30 TEMPO 2218/2312 23007KT

Wetterbeobachtungen und Prognosen von mehr als 4000 Flughäfen (METAR und TAF Bericht).

Die verfügbaren Stationen werden durch gelbe und rote Markierungen auf der Karte dargestellt.

Führen Sie die Maus auf sie, um den Namen der Station zu sehen.

Darauf klicken, um die Beobachtung von Wetterbeobachtungen und Prognosen zu sehen.

Um die Karte zu ändern : klicken Sie auf den grünen Tasten mit einem schwarzen Kreuz Zum Vergrößern, auf den grünen Button mit einem Gedankenstrich zu verkleinern, oder auf die grünen Pfeile für benachbarte Karten.


METAR-TAF: